Time;durP1;ratioP1;P1;durP2;ratioP2;P2;SDS_P1;SDS_P2;PMS_P1;PMS_P2;Temp;Humidity;BMP_temperature;BMP_pressure;BME280_temperature;BME280_humidity;BME280_pressure;Samples;Min_cycle;Max_cycle;Signal;HPM_P1;HPM_P2
2023/05/23 00:02:22;;;;;;;;;;;18.50;92.80;;;;;;5047296;28;19932;-66
2023/05/23 00:04:48;;;;;;;;;;;18.50;92.70;;;;;;5047331;28;20401;-66
2023/05/23 00:07:15;;;;;;;;;;;18.50;92.50;;;;;;5047667;28;20027;-66
2023/05/23 00:09:40;;;;;;;;;;;18.50;92.60;;;;;;5029192;28;20563;-65
2023/05/23 00:12:06;;;;;;;;;;;18.50;92.40;;;;;;5047054;28;19915;-66
2023/05/23 00:14:32;;;;;;;;;;;18.50;92.60;;;;;;5047167;28;19909;-66
2023/05/23 00:16:59;;;;;;;;;;;18.40;92.60;;;;;;5047537;28;19922;-66
2023/05/23 00:19:24;;;;;;;;;;;18.40;92.60;;;;;;5047119;28;19919;-66
2023/05/23 00:21:52;;;;;;;;;;;18.40;92.60;;;;;;5047058;28;20436;-65
2023/05/23 00:24:19;;;;;;;;;;;18.40;92.50;;;;;;5047135;28;20358;-66
2023/05/23 00:26:45;;;;;;;;;;;18.30;92.60;;;;;;5046920;28;19916;-66
2023/05/23 00:29:17;;;;;;;;;;;18.30;92.60;;;;;;5046982;28;20395;-66
2023/05/23 00:31:45;;;;;;;;;;;18.30;92.50;;;;;;5046995;28;20372;-66
2023/05/23 00:34:14;;;;;;;;;;;18.30;92.50;;;;;;5046999;28;19909;-66
2023/05/23 00:36:40;;;;;;;;;;;18.30;92.30;;;;;;5029161;28;19917;-65
2023/05/23 00:39:06;;;;;;;;;;;18.30;92.40;;;;;;5046766;28;19981;-65
2023/05/23 00:41:32;;;;;;;;;;;18.20;92.20;;;;;;5028423;28;20332;-65
2023/05/23 00:43:58;;;;;;;;;;;18.20;92.10;;;;;;5046960;28;19993;-65
2023/05/23 00:46:25;;;;;;;;;;;18.20;92.30;;;;;;5046967;28;19913;-65
2023/05/23 00:48:50;;;;;;;;;;;18.10;92.50;;;;;;5046956;28;19965;-65
2023/05/23 00:51:16;;;;;;;;;;;18.10;92.30;;;;;;5046614;28;19909;-65
2023/05/23 00:53:42;;;;;;;;;;;18.10;92.50;;;;;;5046520;28;20330;-66
2023/05/23 00:56:07;;;;;;;;;;;18.10;92.30;;;;;;5028605;28;20795;-66
2023/05/23 00:58:33;;;;;;;;;;;18.10;92.40;;;;;;5028736;28;19935;-66
2023/05/23 01:00:59;;;;;;;;;;;18.00;92.20;;;;;;5046726;28;19919;-65
2023/05/23 01:03:27;;;;;;;;;;;18.00;92.30;;;;;;5046434;28;19912;-65
2023/05/23 01:05:53;;;;;;;;;;;18.00;92.20;;;;;;5046210;28;19959;-66
2023/05/23 01:08:20;;;;;;;;;;;18.00;92.30;;;;;;5046156;28;19916;-66
2023/05/23 01:10:45;;;;;;;;;;;17.90;92.10;;;;;;5046476;28;19916;-66
2023/05/23 01:13:17;;;;;;;;;;;17.90;92.30;;;;;;5028093;28;19913;-65
2023/05/23 01:16:01;;;;;;;;;;;17.90;92.40;;;;;;5046187;28;19912;-66
2023/05/23 01:18:32;;;;;;;;;;;17.90;92.40;;;;;;5046424;28;20016;-66
2023/05/23 01:21:05;;;;;;;;;;;17.90;92.00;;;;;;5046092;28;20272;-66
2023/05/23 01:23:39;;;;;;;;;;;17.80;92.10;;;;;;5046081;28;19961;-66
2023/05/23 01:26:08;;;;;;;;;;;17.80;92.40;;;;;;5046105;27;19909;-65
2023/05/23 01:28:39;;;;;;;;;;;17.80;92.30;;;;;;5045619;28;20612;-66
2023/05/23 01:31:07;;;;;;;;;;;17.80;92.30;;;;;;5045668;28;20338;-65
2023/05/23 01:33:33;;;;;;;;;;;17.80;92.10;;;;;;5029609;28;19909;-65
2023/05/23 01:36:01;;;;;;;;;;;17.70;92.10;;;;;;5025138;28;19921;-66
2023/05/23 01:38:26;;;;;;;;;;;17.70;92.20;;;;;;5007891;28;19916;-66
2023/05/23 01:40:52;;;;;;;;;;;17.70;92.20;;;;;;5022103;28;20266;-66
2023/05/23 01:43:18;;;;;;;;;;;17.70;92.50;;;;;;5045421;28;20395;-66
2023/05/23 01:45:43;;;;;;;;;;;17.70;92.40;;;;;;5045824;28;19913;-66
2023/05/23 01:48:10;;;;;;;;;;;17.70;92.30;;;;;;5045541;28;19921;-66
2023/05/23 01:50:36;;;;;;;;;;;17.70;92.50;;;;;;5045864;28;19908;-65
2023/05/23 01:53:02;;;;;;;;;;;17.60;92.40;;;;;;5045514;28;19909;-65
2023/05/23 01:55:27;;;;;;;;;;;17.60;92.30;;;;;;5045688;28;19915;-66
2023/05/23 01:57:54;;;;;;;;;;;17.60;92.40;;;;;;5045993;28;19913;-65
2023/05/23 02:00:20;;;;;;;;;;;17.60;92.70;;;;;;5045584;28;19913;-65
2023/05/23 02:02:45;;;;;;;;;;;17.60;92.50;;;;;;5045465;28;19965;-65
2023/05/23 02:05:11;;;;;;;;;;;17.60;92.40;;;;;;5045449;28;19938;-66
2023/05/23 02:07:36;;;;;;;;;;;17.50;92.20;;;;;;5045685;28;19909;-66
2023/05/23 02:10:02;;;;;;;;;;;17.50;92.40;;;;;;5027580;28;19909;-65
2023/05/23 02:12:28;;;;;;;;;;;17.50;92.40;;;;;;5045191;28;19923;-65
2023/05/23 02:14:54;;;;;;;;;;;17.50;92.30;;;;;;5045582;28;19914;-66
2023/05/23 02:17:20;;;;;;;;;;;17.50;92.50;;;;;;5044736;28;19928;-66
2023/05/23 02:19:46;;;;;;;;;;;17.50;92.30;;;;;;5045209;28;19920;-66
2023/05/23 02:22:12;;;;;;;;;;;17.50;92.30;;;;;;5045090;28;19921;-66
2023/05/23 02:24:38;;;;;;;;;;;17.50;92.30;;;;;;5045446;28;19912;-65
2023/05/23 02:27:03;;;;;;;;;;;17.40;92.30;;;;;;5045473;28;20408;-65
2023/05/23 02:29:29;;;;;;;;;;;17.40;92.40;;;;;;5027252;28;19916;-65
2023/05/23 02:31:54;;;;;;;;;;;17.40;92.50;;;;;;5045320;28;19915;-65
2023/05/23 02:34:20;;;;;;;;;;;17.40;92.50;;;;;;5045182;28;20346;-65
2023/05/23 02:36:45;;;;;;;;;;;17.40;92.40;;;;;;5045196;28;19912;-66
2023/05/23 02:39:11;;;;;;;;;;;17.40;92.40;;;;;;5044177;28;19913;-65
2023/05/23 02:41:37;;;;;;;;;;;17.30;92.50;;;;;;5043704;28;19917;-65
2023/05/23 02:44:03;;;;;;;;;;;17.30;92.40;;;;;;5026528;28;19982;-65
2023/05/23 02:46:28;;;;;;;;;;;17.30;92.50;;;;;;5044076;28;19921;-65
2023/05/23 02:48:54;;;;;;;;;;;17.30;92.50;;;;;;5027229;28;20239;-65
2023/05/23 02:51:20;;;;;;;;;;;17.30;92.40;;;;;;5045092;28;20446;-65
2023/05/23 02:53:45;;;;;;;;;;;17.30;92.40;;;;;;5045066;28;19913;-65
2023/05/23 02:56:12;;;;;;;;;;;17.30;92.60;;;;;;5045055;28;20542;-65
2023/05/23 02:58:38;;;;;;;;;;;17.20;92.70;;;;;;5045071;28;19913;-66
2023/05/23 03:01:04;;;;;;;;;;;17.30;92.40;;;;;;5026880;28;19965;-65
2023/05/23 03:03:30;;;;;;;;;;;17.20;92.50;;;;;;5044613;28;19913;-65
2023/05/23 03:05:56;;;;;;;;;;;17.30;92.50;;;;;;5026991;28;19909;-66
2023/05/23 03:08:22;;;;;;;;;;;17.20;92.40;;;;;;5045171;28;20353;-65
2023/05/23 03:10:48;;;;;;;;;;;17.20;92.60;;;;;;5045241;28;19923;-65
2023/05/23 03:13:13;;;;;;;;;;;17.20;92.50;;;;;;5044659;28;19912;-65
2023/05/23 03:15:39;;;;;;;;;;;17.20;92.70;;;;;;5044645;28;19917;-65
2023/05/23 03:18:05;;;;;;;;;;;17.20;92.60;;;;;;5044684;28;19913;-65
2023/05/23 03:20:30;;;;;;;;;;;17.10;92.70;;;;;;5026421;28;19943;-65
2023/05/23 03:22:55;;;;;;;;;;;17.10;92.50;;;;;;5044557;28;19940;-65
2023/05/23 03:25:21;;;;;;;;;;;17.10;92.70;;;;;;5044752;28;19909;-66
2023/05/23 03:27:46;;;;;;;;;;;17.10;92.50;;;;;;5028496;28;19958;-65
2023/05/23 03:30:12;;;;;;;;;;;17.10;92.80;;;;;;5046167;28;20658;-66
2023/05/23 03:32:38;;;;;;;;;;;17.10;92.90;;;;;;5044549;28;19919;-65
2023/05/23 03:35:03;;;;;;;;;;;17.10;92.80;;;;;;5034360;28;19916;-66
2023/05/23 03:37:29;;;;;;;;;;;17.00;92.60;;;;;;5031286;28;20405;-65
2023/05/23 03:39:54;;;;;;;;;;;17.00;92.80;;;;;;5032553;28;19965;-65
2023/05/23 03:42:20;;;;;;;;;;;17.00;92.80;;;;;;5038310;27;19920;-65
2023/05/23 03:44:45;;;;;;;;;;;17.00;92.90;;;;;;5046416;28;20618;-65
2023/05/23 03:47:11;;;;;;;;;;;17.00;92.90;;;;;;5037372;28;20012;-65
2023/05/23 03:49:36;;;;;;;;;;;17.00;92.70;;;;;;5046423;28;20242;-65
2023/05/23 03:52:02;;;;;;;;;;;17.00;92.70;;;;;;5046554;28;20004;-65
2023/05/23 03:54:27;;;;;;;;;;;16.90;92.80;;;;;;5046625;28;19917;-65
2023/05/23 03:56:53;;;;;;;;;;;16.90;92.80;;;;;;5028844;28;19913;-65
2023/05/23 03:59:18;;;;;;;;;;;16.90;92.70;;;;;;5046856;28;19944;-65
2023/05/23 04:01:44;;;;;;;;;;;16.90;92.80;;;;;;5046161;28;20359;-65
2023/05/23 04:04:09;;;;;;;;;;;16.90;92.60;;;;;;5046129;28;20436;-65
2023/05/23 04:06:35;;;;;;;;;;;16.80;92.90;;;;;;5046259;28;19913;-65
2023/05/23 04:09:01;;;;;;;;;;;16.80;92.80;;;;;;5045201;28;19917;-65
2023/05/23 04:11:27;;;;;;;;;;;16.80;92.70;;;;;;5046533;28;19934;-65
2023/05/23 04:13:53;;;;;;;;;;;16.90;92.80;;;;;;5046661;28;19952;-65
2023/05/23 04:16:18;;;;;;;;;;;16.80;92.80;;;;;;5046613;28;19978;-66
2023/05/23 04:18:46;;;;;;;;;;;16.80;93.00;;;;;;5046493;28;19944;-65
2023/05/23 04:21:11;;;;;;;;;;;16.80;92.80;;;;;;5046034;28;20445;-65
2023/05/23 04:23:37;;;;;;;;;;;16.80;92.80;;;;;;5046317;28;19909;-65
2023/05/23 04:26:04;;;;;;;;;;;16.80;92.80;;;;;;5046033;27;19957;-65
2023/05/23 04:28:30;;;;;;;;;;;16.70;92.80;;;;;;5046343;28;19982;-65
2023/05/23 04:30:57;;;;;;;;;;;16.80;92.80;;;;;;5046424;28;19909;-65
2023/05/23 04:33:22;;;;;;;;;;;16.70;92.70;;;;;;5046024;28;19916;-65
2023/05/23 04:35:48;;;;;;;;;;;16.70;92.80;;;;;;5046237;28;20316;-65
2023/05/23 04:38:14;;;;;;;;;;;16.70;92.90;;;;;;5046093;28;19913;-65
2023/05/23 04:40:39;;;;;;;;;;;16.70;93.00;;;;;;5044988;28;20573;-65
2023/05/23 04:43:05;;;;;;;;;;;16.70;92.90;;;;;;5045098;28;19909;-65
2023/05/23 04:45:30;;;;;;;;;;;16.70;93.00;;;;;;5046006;28;20479;-65
2023/05/23 04:47:56;;;;;;;;;;;16.70;93.00;;;;;;5046161;28;20268;-65
2023/05/23 04:50:21;;;;;;;;;;;16.70;93.00;;;;;;5045339;28;19920;-65
2023/05/23 04:52:47;;;;;;;;;;;16.70;93.00;;;;;;5027818;28;20277;-65
2023/05/23 04:55:13;;;;;;;;;;;16.60;93.00;;;;;;5028034;28;19980;-65
2023/05/23 04:57:38;;;;;;;;;;;16.60;92.90;;;;;;5045732;28;20311;-65
2023/05/23 05:00:09;;;;;;;;;;;16.60;93.00;;;;;;5045981;28;19919;-65
2023/05/23 05:02:35;;;;;;;;;;;16.70;92.90;;;;;;5045791;28;20361;-65
2023/05/23 05:05:01;;;;;;;;;;;16.60;92.70;;;;;;5046034;28;19973;-65
2023/05/23 05:07:28;;;;;;;;;;;16.60;93.00;;;;;;5045848;28;19909;-65
2023/05/23 05:09:53;;;;;;;;;;;16.60;92.90;;;;;;5045752;28;19916;-65
2023/05/23 05:12:19;;;;;;;;;;;16.60;93.00;;;;;;5045687;28;20326;-65
2023/05/23 05:14:44;;;;;;;;;;;16.60;92.70;;;;;;5045544;28;19917;-65
2023/05/23 05:17:10;;;;;;;;;;;16.60;92.90;;;;;;5045744;28;20357;-65
2023/05/23 05:19:35;;;;;;;;;;;16.60;93.00;;;;;;5045824;28;19916;-66
2023/05/23 05:22:01;;;;;;;;;;;16.60;93.00;;;;;;5045353;28;20418;-65
2023/05/23 05:24:27;;;;;;;;;;;16.60;92.90;;;;;;5045702;28;19909;-65
2023/05/23 05:26:53;;;;;;;;;;;16.60;93.00;;;;;;5045012;28;19913;-65
2023/05/23 05:29:19;;;;;;;;;;;16.60;93.00;;;;;;5045387;28;19924;-65
2023/05/23 05:31:44;;;;;;;;;;;16.60;93.00;;;;;;5034118;28;19917;-65
2023/05/23 05:34:10;;;;;;;;;;;16.60;92.90;;;;;;5040882;28;19951;-65
2023/05/23 05:36:35;;;;;;;;;;;16.60;93.10;;;;;;5044973;28;19909;-65
2023/05/23 05:39:01;;;;;;;;;;;16.50;92.90;;;;;;5039620;28;19915;-65
2023/05/23 05:41:27;;;;;;;;;;;16.60;93.00;;;;;;5044390;28;19996;-65
2023/05/23 05:43:52;;;;;;;;;;;16.50;93.00;;;;;;5044749;28;19919;-65
2023/05/23 05:46:18;;;;;;;;;;;16.50;93.00;;;;;;5042687;28;19919;-65
2023/05/23 05:48:43;;;;;;;;;;;16.50;93.00;;;;;;5042104;28;19916;-65
2023/05/23 05:51:08;;;;;;;;;;;16.50;93.00;;;;;;5044760;28;19913;-65
2023/05/23 05:53:34;;;;;;;;;;;16.50;93.10;;;;;;5044452;28;20327;-65
2023/05/23 05:56:00;;;;;;;;;;;16.50;93.00;;;;;;5044895;27;19952;-65
2023/05/23 05:58:26;;;;;;;;;;;16.50;93.30;;;;;;5043245;28;20366;-65
2023/05/23 06:00:52;;;;;;;;;;;16.50;93.10;;;;;;5044930;28;19920;-65
2023/05/23 06:03:18;;;;;;;;;;;16.50;93.10;;;;;;5044256;28;19920;-65
2023/05/23 06:05:43;;;;;;;;;;;16.50;93.10;;;;;;5044417;28;19936;-65
2023/05/23 06:08:09;;;;;;;;;;;16.50;93.10;;;;;;5044804;28;19939;-65
2023/05/23 06:10:36;;;;;;;;;;;16.50;93.10;;;;;;5044479;28;19913;-65
2023/05/23 06:13:01;;;;;;;;;;;16.50;93.10;;;;;;5044556;28;19913;-65
2023/05/23 06:15:27;;;;;;;;;;;16.40;93.10;;;;;;5044401;28;19919;-65
2023/05/23 06:17:52;;;;;;;;;;;16.40;93.10;;;;;;5044821;28;19951;-65
2023/05/23 06:20:18;;;;;;;;;;;16.40;93.10;;;;;;5044926;28;19913;-65
2023/05/23 06:22:43;;;;;;;;;;;16.40;93.00;;;;;;5044903;28;19927;-65
2023/05/23 06:25:09;;;;;;;;;;;16.40;93.10;;;;;;5044888;28;19924;-65
2023/05/23 06:27:35;;;;;;;;;;;16.40;93.10;;;;;;5027703;28;19948;-65
2023/05/23 06:30:01;;;;;;;;;;;16.40;93.10;;;;;;5045379;28;19917;-65
2023/05/23 06:32:26;;;;;;;;;;;16.40;93.10;;;;;;5045101;28;19913;-65
2023/05/23 06:34:52;;;;;;;;;;;16.40;93.10;;;;;;5045256;28;19934;-65
2023/05/23 06:37:17;;;;;;;;;;;16.40;93.20;;;;;;5045282;28;19947;-66
2023/05/23 06:39:43;;;;;;;;;;;16.40;93.10;;;;;;5027157;28;20532;-65
2023/05/23 06:42:08;;;;;;;;;;;16.40;93.00;;;;;;5026638;28;19991;-65
2023/05/23 06:44:34;;;;;;;;;;;16.30;93.10;;;;;;5045220;28;19912;-65
2023/05/23 06:46:59;;;;;;;;;;;16.40;93.20;;;;;;5045159;28;20614;-65
2023/05/23 06:49:25;;;;;;;;;;;16.30;93.10;;;;;;5027483;28;19919;-65
2023/05/23 06:51:51;;;;;;;;;;;16.40;93.10;;;;;;5044988;28;20288;-65
2023/05/23 06:54:17;;;;;;;;;;;16.30;93.10;;;;;;5045200;28;20349;-65
2023/05/23 06:56:42;;;;;;;;;;;16.40;93.10;;;;;;5045012;28;19917;-65
2023/05/23 06:59:08;;;;;;;;;;;16.40;93.10;;;;;;5045162;28;19969;-65
2023/05/23 07:01:33;;;;;;;;;;;16.30;93.00;;;;;;5044912;28;19913;-65
2023/05/23 07:03:59;;;;;;;;;;;16.30;93.20;;;;;;5044874;28;19917;-65
2023/05/23 07:06:26;;;;;;;;;;;16.30;93.10;;;;;;5048075;28;19961;-65
2023/05/23 07:08:52;;;;;;;;;;;16.30;93.00;;;;;;5048547;28;19912;-65
2023/05/23 07:11:17;;;;;;;;;;;16.30;93.00;;;;;;5048423;28;19913;-65
2023/05/23 07:13:43;;;;;;;;;;;16.30;93.20;;;;;;5048166;28;19919;-65
2023/05/23 07:16:08;;;;;;;;;;;16.30;93.40;;;;;;5048402;28;19916;-65
2023/05/23 07:18:34;;;;;;;;;;;16.20;92.90;;;;;;5048216;28;20003;-65
2023/05/23 07:20:59;;;;;;;;;;;16.30;93.10;;;;;;5048169;28;20585;-65
2023/05/23 07:23:25;;;;;;;;;;;16.30;93.10;;;;;;5048185;28;19974;-65
2023/05/23 07:25:50;;;;;;;;;;;16.30;92.90;;;;;;5048110;28;19961;-65
2023/05/23 07:28:16;;;;;;;;;;;16.20;93.00;;;;;;5048058;28;19997;-65
2023/05/23 07:30:41;;;;;;;;;;;16.20;93.00;;;;;;5047892;28;19916;-65
2023/05/23 07:33:07;;;;;;;;;;;16.30;93.00;;;;;;5047030;28;19961;-65
2023/05/23 07:35:32;;;;;;;;;;;16.30;93.20;;;;;;5048077;28;19916;-65
2023/05/23 07:37:58;;;;;;;;;;;16.30;93.10;;;;;;5048276;28;19920;-65
2023/05/23 07:40:23;;;;;;;;;;;16.30;93.10;;;;;;5046166;28;19919;-65
2023/05/23 07:42:49;;;;;;;;;;;16.30;93.00;;;;;;5029648;28;19917;-65
2023/05/23 07:45:14;;;;;;;;;;;16.30;93.10;;;;;;5047988;28;20026;-65
2023/05/23 07:47:40;;;;;;;;;;;16.30;93.00;;;;;;5047856;28;20385;-65
2023/05/23 07:50:06;;;;;;;;;;;16.30;93.00;;;;;;5047742;28;19923;-65
2023/05/23 07:52:32;;;;;;;;;;;16.30;92.90;;;;;;5047552;28;20050;-65
2023/05/23 07:54:57;;;;;;;;;;;16.40;93.00;;;;;;5029744;28;19913;-65
2023/05/23 07:57:23;;;;;;;;;;;16.30;93.00;;;;;;5047459;28;19913;-65
2023/05/23 07:59:50;;;;;;;;;;;16.40;93.00;;;;;;5047666;28;19919;-65
2023/05/23 08:02:15;;;;;;;;;;;16.30;93.00;;;;;;5029151;28;19956;-65
2023/05/23 08:04:41;;;;;;;;;;;16.40;93.00;;;;;;5047591;28;19993;-65
2023/05/23 08:07:07;;;;;;;;;;;16.40;93.00;;;;;;5047595;28;19951;-65
2023/05/23 08:09:33;;;;;;;;;;;16.40;92.80;;;;;;5047554;28;19924;-65
2023/05/23 08:11:58;;;;;;;;;;;16.40;92.90;;;;;;5047129;28;19913;-65
2023/05/23 08:14:24;;;;;;;;;;;16.40;93.00;;;;;;5029687;28;19913;-65
2023/05/23 08:16:50;;;;;;;;;;;16.40;92.90;;;;;;5046886;28;20004;-65
2023/05/23 08:19:15;;;;;;;;;;;16.30;93.00;;;;;;5029285;28;19932;-65
2023/05/23 08:21:41;;;;;;;;;;;16.40;92.90;;;;;;5047138;28;20372;-65
2023/05/23 08:24:06;;;;;;;;;;;16.40;92.80;;;;;;5047215;28;19912;-65
2023/05/23 08:26:36;;;;;;;;;;;16.40;92.90;;;;;;5046834;28;20007;-65
2023/05/23 08:29:01;;;;;;;;;;;16.40;92.80;;;;;;5047432;27;19952;-65
2023/05/23 08:31:27;;;;;;;;;;;16.50;92.80;;;;;;5046995;28;19952;-66
2023/05/23 08:33:53;;;;;;;;;;;16.50;92.70;;;;;;5044006;28;19913;-66
2023/05/23 08:36:18;;;;;;;;;;;16.60;92.70;;;;;;5046618;28;19917;-65
2023/05/23 08:38:44;;;;;;;;;;;16.60;92.60;;;;;;5047115;28;19912;-65
2023/05/23 08:41:17;;;;;;;;;;;16.60;92.70;;;;;;5045034;28;19913;-65
2023/05/23 08:43:42;;;;;;;;;;;16.60;92.60;;;;;;5046843;28;20472;-65
2023/05/23 08:46:08;;;;;;;;;;;16.60;92.60;;;;;;5046921;28;19913;-65
2023/05/23 08:48:33;;;;;;;;;;;16.60;92.60;;;;;;5028826;28;19920;-65
2023/05/23 08:51:00;;;;;;;;;;;16.60;92.70;;;;;;5046667;28;19999;-65
2023/05/23 08:53:26;;;;;;;;;;;16.60;92.60;;;;;;5046567;28;19921;-65
2023/05/23 08:55:53;;;;;;;;;;;16.60;92.70;;;;;;5046617;27;20490;-65
2023/05/23 08:58:19;;;;;;;;;;;16.60;92.50;;;;;;5046707;28;20314;-65
2023/05/23 09:00:45;;;;;;;;;;;16.60;92.70;;;;;;5046872;28;19954;-65
2023/05/23 09:03:11;;;;;;;;;;;16.50;92.60;;;;;;5046443;28;19909;-65
2023/05/23 09:05:37;;;;;;;;;;;16.50;92.70;;;;;;5028163;28;19920;-65
2023/05/23 09:08:02;;;;;;;;;;;16.50;92.70;;;;;;5028182;28;19912;-65
2023/05/23 09:10:28;;;;;;;;;;;16.50;92.70;;;;;;5046325;28;19923;-65
2023/05/23 09:12:54;;;;;;;;;;;16.50;92.80;;;;;;5028170;28;19913;-65
2023/05/23 09:15:21;;;;;;;;;;;16.50;92.70;;;;;;5045695;28;19989;-65
2023/05/23 09:17:46;;;;;;;;;;;16.50;92.80;;;;;;5045482;28;19913;-65
2023/05/23 09:20:13;;;;;;;;;;;16.40;92.60;;;;;;5045817;28;19908;-65
2023/05/23 09:22:39;;;;;;;;;;;16.40;92.70;;;;;;5045499;28;19921;-65
2023/05/23 09:25:05;;;;;;;;;;;16.40;92.70;;;;;;5045899;28;19912;-65
2023/05/23 09:27:30;;;;;;;;;;;16.30;92.70;;;;;;5044989;28;19909;-65
2023/05/23 09:29:56;;;;;;;;;;;16.40;92.70;;;;;;5030093;28;20003;-65
2023/05/23 09:32:21;;;;;;;;;;;16.30;92.70;;;;;;5045310;28;19915;-65
2023/05/23 09:34:56;;;;;;;;;;;16.40;92.70;;;;;;5045563;28;20353;-65
2023/05/23 09:37:24;;;;;;;;;;;16.40;92.70;;;;;;5045081;28;20368;-65
2023/05/23 09:39:50;;;;;;;;;;;16.30;92.70;;;;;;5044207;28;19958;-65
2023/05/23 09:42:20;;;;;;;;;;;16.40;92.70;;;;;;5044516;28;19908;-65
2023/05/23 09:44:46;;;;;;;;;;;16.30;92.70;;;;;;5045343;28;20410;-65
2023/05/23 09:47:11;;;;;;;;;;;16.40;92.70;;;;;;5044965;28;19909;-65
2023/05/23 09:49:42;;;;;;;;;;;16.40;92.60;;;;;;5027477;28;19915;-67
2023/05/23 09:52:07;;;;;;;;;;;16.40;92.60;;;;;;5045007;28;19923;-65
2023/05/23 09:54:33;;;;;;;;;;;16.40;92.60;;;;;;5045153;28;19912;-65
2023/05/23 09:57:00;;;;;;;;;;;16.50;92.60;;;;;;5044925;28;20455;-65
2023/05/23 09:59:30;;;;;;;;;;;16.50;92.50;;;;;;5045051;28;19917;-65
2023/05/23 10:01:56;;;;;;;;;;;16.50;92.50;;;;;;5044585;28;19920;-65
2023/05/23 10:04:24;;;;;;;;;;;16.50;92.40;;;;;;5044875;28;19908;-65
2023/05/23 10:06:58;;;;;;;;;;;16.50;92.30;;;;;;5044786;28;20406;-65
2023/05/23 10:09:26;;;;;;;;;;;16.50;92.20;;;;;;5044192;28;20457;-65
2023/05/23 10:12:10;;;;;;;;;;;16.50;92.40;;;;;;5044213;28;19964;-65
2023/05/23 10:14:37;;;;;;;;;;;16.50;92.30;;;;;;5044744;28;19917;-65
2023/05/23 10:17:06;;;;;;;;;;;16.50;92.40;;;;;;5026648;28;19951;-65
2023/05/23 10:19:34;;;;;;;;;;;16.50;92.40;;;;;;5044735;28;19913;-65
2023/05/23 10:22:02;;;;;;;;;;;16.40;92.40;;;;;;5044367;28;19951;-65
2023/05/23 10:24:28;;;;;;;;;;;16.40;92.30;;;;;;5045143;28;20020;-65
2023/05/23 10:26:54;;;;;;;;;;;16.40;92.30;;;;;;5045078;28;20016;-66
2023/05/23 10:29:21;;;;;;;;;;;16.40;92.40;;;;;;5045286;28;19921;-65
2023/05/23 10:31:46;;;;;;;;;;;16.30;92.20;;;;;;5045133;27;19913;-65
2023/05/23 10:34:15;;;;;;;;;;;16.30;92.40;;;;;;5045139;28;20280;-65
2023/05/23 10:36:59;;;;;;;;;;;16.30;92.30;;;;;;5044708;28;19913;-65
2023/05/23 10:39:47;;;;;;;;;;;16.30;92.30;;;;;;5046387;28;19913;-65
2023/05/23 10:42:19;;;;;;;;;;;16.30;92.30;;;;;;5049370;28;19912;-65
2023/05/23 10:44:44;;;;;;;;;;;16.30;92.30;;;;;;5048224;28;19957;-65
2023/05/23 10:47:11;;;;;;;;;;;16.20;92.30;;;;;;5048768;28;19993;-65
2023/05/23 10:49:40;;;;;;;;;;;16.20;92.40;;;;;;5048751;27;19921;-65
2023/05/23 10:52:07;;;;;;;;;;;16.20;92.40;;;;;;5048410;28;20567;-65
2023/05/23 10:54:36;;;;;;;;;;;16.20;92.30;;;;;;5048636;28;19920;-65
2023/05/23 10:57:02;;;;;;;;;;;16.20;92.30;;;;;;5048491;28;19931;-65
2023/05/23 10:59:28;;;;;;;;;;;16.30;92.30;;;;;;5048437;28;19924;-65
2023/05/23 11:01:54;;;;;;;;;;;16.30;92.20;;;;;;5047151;28;20401;-65
2023/05/23 11:04:27;;;;;;;;;;;16.30;92.00;;;;;;5047943;28;20398;-65
2023/05/23 11:06:53;;;;;;;;;;;16.50;91.90;;;;;;5048324;28;19909;-65
2023/05/23 11:09:20;;;;;;;;;;;16.50;91.80;;;;;;5048297;28;19916;-65
2023/05/23 11:11:52;;;;;;;;;;;16.50;91.60;;;;;;5064644;27;20384;-65
2023/05/23 11:14:17;;;;;;;;;;;16.50;91.60;;;;;;5068293;28;19916;-65
2023/05/23 11:16:45;;;;;;;;;;;16.60;91.60;;;;;;5068072;28;19913;-65
2023/05/23 11:19:17;;;;;;;;;;;16.60;91.60;;;;;;5068274;28;19940;-65
2023/05/23 11:21:47;;;;;;;;;;;16.60;91.50;;;;;;5068142;28;20464;-65
2023/05/23 11:24:13;;;;;;;;;;;16.60;91.60;;;;;;5061365;28;19912;-65
2023/05/23 11:26:38;;;;;;;;;;;16.60;91.50;;;;;;5047949;28;19913;-65
2023/05/23 11:29:08;;;;;;;;;;;16.60;91.50;;;;;;5048440;28;19948;-65
2023/05/23 11:31:36;;;;;;;;;;;16.60;91.50;;;;;;5047924;28;20003;-65
2023/05/23 11:34:02;;;;;;;;;;;16.70;91.50;;;;;;5045006;27;20613;-65
2023/05/23 11:36:28;;;;;;;;;;;16.60;91.40;;;;;;5029864;28;19917;-65
2023/05/23 11:38:54;;;;;;;;;;;16.70;91.40;;;;;;5047963;28;20416;-65
2023/05/23 11:41:20;;;;;;;;;;;16.70;91.30;;;;;;5044489;27;19919;-65
2023/05/23 11:43:49;;;;;;;;;;;16.70;91.30;;;;;;5042607;27;19923;-65
2023/05/23 11:46:15;;;;;;;;;;;16.70;91.60;;;;;;5026295;27;19917;-65
2023/05/23 11:48:44;;;;;;;;;;;16.70;91.20;;;;;;5041387;27;19917;-65
2023/05/23 11:51:10;;;;;;;;;;;16.60;91.30;;;;;;5042194;27;19917;-65
2023/05/23 11:53:35;;;;;;;;;;;16.70;91.40;;;;;;5029465;28;20003;-65
2023/05/23 11:56:01;;;;;;;;;;;16.70;91.20;;;;;;5047567;28;19938;-65
2023/05/23 11:58:38;;;;;;;;;;;16.70;91.20;;;;;;5047324;28;19909;-65
2023/05/23 12:01:07;;;;;;;;;;;16.80;91.00;;;;;;5047813;28;19913;-65
2023/05/23 12:03:33;;;;;;;;;;;16.80;90.90;;;;;;5047199;28;19965;-65
2023/05/23 12:06:00;;;;;;;;;;;16.80;90.90;;;;;;5028926;28;19913;-65
2023/05/23 12:08:26;;;;;;;;;;;16.80;90.90;;;;;;5029618;28;19942;-65
2023/05/23 12:11:01;;;;;;;;;;;16.80;90.80;;;;;;5029364;28;20299;-65
2023/05/23 12:13:27;;;;;;;;;;;16.80;90.80;;;;;;5047410;28;19913;-65
2023/05/23 12:15:57;;;;;;;;;;;16.80;90.80;;;;;;5047288;28;19912;-65
2023/05/23 12:18:26;;;;;;;;;;;16.80;90.80;;;;;;5047185;28;19915;-65
2023/05/23 12:20:52;;;;;;;;;;;16.90;90.80;;;;;;5046946;28;20354;-65
2023/05/23 12:23:18;;;;;;;;;;;16.90;90.60;;;;;;5046857;28;19917;-65
2023/05/23 12:25:48;;;;;;;;;;;17.00;90.60;;;;;;5047183;28;19913;-65
2023/05/23 12:28:14;;;;;;;;;;;17.00;90.40;;;;;;5047191;28;20664;-65
2023/05/23 12:30:41;;;;;;;;;;;17.10;90.30;;;;;;5047045;28;20281;-65
2023/05/23 12:33:07;;;;;;;;;;;17.20;90.10;;;;;;5046810;28;19966;-65
2023/05/23 12:35:33;;;;;;;;;;;17.40;90.00;;;;;;5047027;28;19913;-65
2023/05/23 12:37:58;;;;;;;;;;;17.50;89.50;;;;;;5046818;28;19942;-65
2023/05/23 12:40:24;;;;;;;;;;;17.60;89.20;;;;;;5046221;28;19919;-65
2023/05/23 12:42:52;;;;;;;;;;;17.80;88.70;;;;;;5046388;28;20011;-65
2023/05/23 12:45:21;;;;;;;;;;;17.80;88.50;;;;;;5046885;28;19909;-65
2023/05/23 12:47:47;;;;;;;;;;;18.00;88.10;;;;;;5046630;28;19916;-65
2023/05/23 12:50:13;;;;;;;;;;;18.00;87.00;;;;;;5038188;28;20312;-64
2023/05/23 12:52:39;;;;;;;;;;;18.10;87.60;;;;;;5028785;28;19958;-65
2023/05/23 12:55:05;;;;;;;;;;;18.10;87.20;;;;;;5046591;28;19913;-65
2023/05/23 12:57:31;;;;;;;;;;;18.20;87.10;;;;;;5046543;28;20370;-65
2023/05/23 12:59:57;;;;;;;;;;;18.30;87.20;;;;;;5046121;28;19921;-65
2023/05/23 13:02:23;;;;;;;;;;;18.40;86.80;;;;;;5044921;28;20013;-65
2023/05/23 13:04:48;;;;;;;;;;;18.50;86.50;;;;;;5046601;28;19916;-65
2023/05/23 13:07:14;;;;;;;;;;;18.70;86.10;;;;;;5028409;28;19957;-65
2023/05/23 13:09:40;;;;;;;;;;;18.80;86.20;;;;;;5046436;28;19962;-65
2023/05/23 13:12:05;;;;;;;;;;;18.80;85.70;;;;;;5046215;28;20337;-66
2023/05/23 13:14:31;;;;;;;;;;;18.90;85.50;;;;;;5046561;28;19913;-66
2023/05/23 13:16:56;;;;;;;;;;;18.90;85.20;;;;;;5046264;28;19955;-65
2023/05/23 13:19:22;;;;;;;;;;;18.90;84.70;;;;;;5046363;28;20004;-65
2023/05/23 13:21:47;;;;;;;;;;;18.90;84.90;;;;;;5046152;28;20703;-65
2023/05/23 13:24:20;;;;;;;;;;;19.00;84.50;;;;;;5002983;28;20448;-65
2023/05/23 13:26:46;;;;;;;;;;;19.10;84.40;;;;;;5002594;28;19914;-65
2023/05/23 13:29:11;;;;;;;;;;;19.10;84.00;;;;;;5003129;28;20107;-65
2023/05/23 13:31:37;;;;;;;;;;;19.20;83.70;;;;;;5002538;28;19914;-65
2023/05/23 13:34:02;;;;;;;;;;;19.20;83.20;;;;;;5026124;28;19916;-65
2023/05/23 13:36:28;;;;;;;;;;;19.20;82.80;;;;;;5105654;28;19916;-66
2023/05/23 13:38:53;;;;;;;;;;;19.20;82.90;;;;;;5105576;28;19965;-65
2023/05/23 13:41:19;;;;;;;;;;;19.20;83.10;;;;;;5008717;28;19993;-67
2023/05/23 13:43:44;;;;;;;;;;;19.40;82.70;;;;;;5002043;28;19918;-66
2023/05/23 13:46:11;;;;;;;;;;;19.40;82.40;;;;;;5002590;28;19910;-65
2023/05/23 13:48:36;;;;;;;;;;;19.60;81.90;;;;;;5002929;28;19913;-66
2023/05/23 13:51:02;;;;;;;;;;;19.70;81.70;;;;;;5002565;28;20305;-67
2023/05/23 13:53:27;;;;;;;;;;;19.70;81.50;;;;;;5002373;28;20382;-67
2023/05/23 13:55:53;;;;;;;;;;;19.80;81.10;;;;;;5002156;28;19917;-65
2023/05/23 13:58:19;;;;;;;;;;;19.80;81.40;;;;;;5002168;28;19922;-65
2023/05/23 14:00:46;;;;;;;;;;;19.70;81.30;;;;;;5001779;28;20526;-65
2023/05/23 14:03:11;;;;;;;;;;;19.70;81.40;;;;;;5000861;28;19918;-65
2023/05/23 14:05:37;;;;;;;;;;;19.70;81.60;;;;;;5001894;28;19909;-65
2023/05/23 14:08:03;;;;;;;;;;;19.70;81.30;;;;;;5002497;28;19917;-65
2023/05/23 14:10:29;;;;;;;;;;;19.80;81.40;;;;;;5001313;28;19967;-65
2023/05/23 14:12:54;;;;;;;;;;;19.70;81.70;;;;;;5000907;28;19925;-65